createdAt,value
2017-09-26T00:00:14.234Z,61.37
2017-09-26T00:02:42.659Z,55.70
2017-09-26T00:05:11.179Z,68.40
2017-09-26T00:07:39.664Z,65.70
2017-09-26T00:10:08.116Z,63.07
2017-09-26T00:12:37.317Z,77.93
2017-09-26T00:15:06.527Z,68.33
2017-09-26T00:17:35.842Z,63.00
2017-09-26T00:20:04.277Z,75.97
2017-09-26T00:22:32.737Z,77.37
2017-09-26T00:25:01.196Z,78.80
2017-09-26T00:27:29.652Z,75.90
2017-09-26T00:29:58.852Z,71.77
2017-09-26T00:32:28.058Z,73.93
2017-09-26T00:34:56.487Z,83.30
2017-09-26T00:37:24.945Z,86.37
2017-09-26T00:39:53.380Z,79.43
2017-09-26T00:42:22.660Z,71.13
2017-09-26T00:44:51.206Z,66.93
2017-09-26T00:47:19.783Z,69.60
2017-09-26T00:49:48.215Z,80.27
2017-09-26T00:52:16.664Z,105.73
2017-09-26T00:54:45.115Z,72.97
2017-09-26T00:57:13.556Z,77.93
2017-09-26T00:59:42.016Z,80.43
2017-09-26T01:02:10.443Z,80.03
2017-09-26T01:04:39.655Z,72.17
2017-09-26T01:07:12.860Z,79.03
2017-09-26T01:09:41.303Z,82.23
2017-09-26T01:12:09.828Z,78.30
2017-09-26T01:14:38.276Z,89.50
2017-09-26T01:17:07.708Z,86.77
2017-09-26T01:19:36.180Z,81.80
2017-09-26T01:22:04.607Z,95.70
2017-09-26T01:24:33.061Z,98.43
2017-09-26T01:27:01.503Z,90.53
2017-09-26T01:29:30.703Z,96.23
2017-09-26T01:32:00.040Z,93.67
2017-09-26T01:34:28.463Z,95.93
2017-09-26T01:36:56.923Z,103.13
2017-09-26T01:39:25.360Z,107.07
2017-09-26T01:41:54.683Z,96.90
2017-09-26T01:44:23.163Z,114.03
2017-09-26T01:46:51.608Z,107.03
2017-09-26T01:49:20.818Z,120.10
2017-09-26T01:51:50.031Z,118.53
2017-09-26T01:54:18.458Z,104.83
2017-09-26T01:56:48.715Z,110.23
2017-09-26T01:59:18.828Z,104.97
2017-09-26T02:01:47.347Z,121.63
2017-09-26T02:04:15.843Z,107.00
2017-09-26T02:06:44.416Z,113.73
2017-09-26T02:09:12.852Z,108.70
2017-09-26T02:11:41.375Z,134.70
2017-09-26T02:14:09.861Z,118.07
2017-09-26T02:16:38.290Z,111.77
2017-09-26T02:19:06.748Z,108.67
2017-09-26T02:21:35.203Z,109.27
2017-09-26T02:24:03.651Z,117.67
2017-09-26T02:26:32.091Z,118.90
2017-09-26T02:29:00.651Z,118.53
2017-09-26T02:31:29.079Z,110.30
2017-09-26T02:33:57.535Z,97.43
2017-09-26T02:36:25.994Z,109.40
2017-09-26T02:38:54.476Z,107.30
2017-09-26T02:41:22.971Z,123.80
2017-09-26T02:43:51.413Z,109.07
2017-09-26T02:46:20.637Z,96.40
2017-09-26T02:48:49.071Z,104.23
2017-09-26T02:51:18.301Z,111.83
2017-09-26T02:53:47.505Z,109.47
2017-09-26T02:56:15.965Z,97.63
2017-09-26T02:58:45.199Z,100.20
2017-09-26T03:01:13.646Z,111.70
2017-09-26T03:03:42.879Z,126.50
2017-09-26T03:06:11.368Z,107.60
2017-09-26T03:08:39.803Z,109.33
2017-09-26T03:11:08.244Z,118.30
2017-09-26T03:13:36.711Z,99.00
2017-09-26T03:16:05.155Z,121.63
2017-09-26T03:18:34.380Z,121.77
2017-09-26T03:21:02.808Z,98.37
2017-09-26T03:23:31.263Z,109.80
2017-09-26T03:25:59.705Z,102.03
2017-09-26T03:28:28.927Z,121.23
2017-09-26T03:30:57.360Z,111.77
2017-09-26T03:33:25.891Z,113.07
2017-09-26T03:35:54.319Z,104.13
2017-09-26T03:38:22.756Z,116.13
2017-09-26T03:40:51.208Z,111.53
2017-09-26T03:43:20.440Z,118.90
2017-09-26T03:45:48.891Z,105.53
2017-09-26T03:48:18.096Z,112.47
2017-09-26T03:50:47.414Z,116.53
2017-09-26T03:53:15.839Z,106.23
2017-09-26T03:55:44.287Z,112.67
2017-09-26T03:58:12.720Z,129.07
2017-09-26T04:00:41.184Z,118.07
2017-09-26T04:03:09.620Z,120.37
2017-09-26T04:05:38.208Z,127.53
2017-09-26T04:08:06.639Z,107.60
2017-09-26T04:10:35.579Z,120.37
2017-09-26T04:13:04.036Z,118.57
2017-09-26T04:15:33.268Z,121.13
2017-09-26T04:18:01.722Z,109.40
2017-09-26T04:20:30.932Z,102.80
2017-09-26T04:22:59.431Z,105.90
2017-09-26T04:25:27.868Z,100.03
2017-09-26T04:27:56.387Z,103.73
2017-09-26T04:30:24.881Z,131.77
2017-09-26T04:32:53.332Z,103.00
2017-09-26T04:35:22.543Z,102.87
2017-09-26T04:37:51.050Z,110.93
2017-09-26T04:40:19.510Z,109.93
2017-09-26T04:42:47.980Z,103.47
2017-09-26T04:45:17.176Z,99.67
2017-09-26T04:47:46.376Z,99.27
2017-09-26T04:50:15.590Z,85.70
2017-09-26T04:52:44.032Z,114.77
2017-09-26T04:55:12.555Z,95.47
2017-09-26T04:57:40.988Z,95.00
2017-09-26T05:00:09.444Z,99.97
2017-09-26T05:02:37.880Z,119.33
2017-09-26T05:05:07.108Z,118.13
2017-09-26T05:07:35.551Z,112.53
2017-09-26T05:10:04.776Z,107.60
2017-09-26T05:12:33.211Z,110.47
2017-09-26T05:15:01.688Z,99.20
2017-09-26T05:17:30.128Z,113.20
2017-09-26T05:19:58.612Z,105.57
2017-09-26T05:22:27.092Z,94.83
2017-09-26T05:24:55.520Z,98.40
2017-09-26T05:27:23.984Z,102.60
2017-09-26T05:29:52.420Z,91.13
2017-09-26T05:32:21.639Z,95.37
2017-09-26T05:34:50.087Z,107.33
2017-09-26T05:37:19.334Z,100.97
2017-09-26T05:39:47.769Z,91.20
2017-09-26T05:42:16.962Z,90.17
2017-09-26T05:44:46.286Z,92.30
2017-09-26T05:47:14.707Z,87.37
2017-09-26T05:49:43.146Z,99.90
2017-09-26T05:52:11.640Z,95.97
2017-09-26T05:54:40.097Z,95.80
2017-09-26T05:57:09.301Z,84.97
2017-09-26T05:59:38.619Z,91.37
2017-09-26T06:02:07.042Z,85.53
2017-09-26T06:04:35.583Z,97.73
2017-09-26T06:07:04.020Z,103.00
2017-09-26T06:09:32.546Z,95.30
2017-09-26T06:12:00.967Z,97.60
2017-09-26T06:14:29.421Z,81.43
2017-09-26T06:16:57.865Z,103.77
2017-09-26T06:19:27.186Z,86.13
2017-09-26T06:21:55.680Z,88.10
2017-09-26T06:24:24.102Z,98.87
2017-09-26T06:26:52.547Z,88.20
2017-09-26T06:29:20.991Z,98.60
2017-09-26T06:31:50.208Z,99.90
2017-09-26T06:34:18.649Z,102.63
2017-09-26T06:36:47.091Z,83.53
2017-09-26T06:39:15.515Z,85.27
2017-09-26T06:41:43.969Z,86.47
2017-09-26T06:44:12.433Z,88.93
2017-09-26T06:46:40.874Z,82.17
2017-09-26T06:49:10.128Z,88.97
2017-09-26T06:51:38.640Z,84.10
2017-09-26T06:54:08.428Z,82.93
2017-09-26T06:56:36.888Z,74.30
2017-09-26T06:59:05.331Z,79.57
2017-09-26T07:01:35.060Z,91.03
2017-09-26T07:04:03.514Z,83.03
2017-09-26T07:06:31.943Z,88.20
2017-09-26T07:09:00.381Z,91.13
2017-09-26T07:11:28.807Z,98.03
2017-09-26T07:13:57.255Z,91.57
2017-09-26T07:16:26.456Z,114.33
2017-09-26T07:18:55.672Z,99.67
2017-09-26T07:21:24.108Z,106.17
2017-09-26T07:23:52.587Z,107.60
2017-09-26T07:26:21.021Z,95.93
2017-09-26T07:28:49.457Z,114.90
2017-09-26T07:31:17.918Z,104.17
2017-09-26T07:33:46.348Z,98.73
2017-09-26T07:36:15.672Z,101.13
2017-09-26T07:38:44.119Z,111.77
2017-09-26T07:41:13.456Z,101.23
2017-09-26T07:43:41.930Z,90.87
2017-09-26T07:46:10.372Z,104.50
2017-09-26T07:48:38.808Z,78.60
2017-09-26T07:51:07.291Z,85.17
2017-09-26T07:53:35.719Z,85.20
2017-09-26T07:56:04.201Z,74.67
2017-09-26T07:58:32.706Z,88.27
2017-09-26T08:01:02.163Z,111.53
2017-09-26T08:03:31.277Z,100.87
2017-09-26T08:06:00.461Z,84.70
2017-09-26T08:08:29.799Z,86.33
2017-09-26T08:10:58.990Z,88.17
2017-09-26T08:13:28.216Z,81.60
2017-09-26T08:15:56.648Z,96.40
2017-09-26T08:18:25.100Z,71.60
2017-09-26T08:20:53.528Z,75.97
2017-09-26T08:23:21.988Z,72.63
2017-09-26T08:25:50.424Z,75.57
2017-09-26T08:28:18.874Z,72.97
2017-09-26T08:30:48.071Z,72.53
2017-09-26T08:33:17.321Z,84.20
2017-09-26T08:35:45.787Z,70.60
2017-09-26T08:38:14.219Z,74.10
2017-09-26T08:40:42.666Z,63.50
2017-09-26T08:43:11.101Z,75.63
2017-09-26T08:45:40.323Z,67.10
2017-09-26T08:48:08.746Z,74.80
2017-09-26T08:50:37.204Z,70.63
2017-09-26T08:53:05.635Z,70.77
2017-09-26T08:55:34.095Z,71.43
2017-09-26T08:58:02.634Z,72.90
2017-09-26T09:00:31.084Z,61.87
2017-09-26T09:03:00.319Z,74.33
2017-09-26T09:05:28.776Z,77.43
2017-09-26T09:07:57.971Z,78.33
2017-09-26T09:10:27.190Z,66.97
2017-09-26T09:12:55.711Z,86.33
2017-09-26T09:15:24.263Z,79.23
2017-09-26T09:17:52.686Z,74.27
2017-09-26T09:20:21.231Z,101.07
2017-09-26T09:22:49.667Z,75.40
2017-09-26T09:25:18.100Z,87.83
2017-09-26T09:27:46.567Z,77.87
2017-09-26T09:30:14.992Z,79.20
2017-09-26T09:32:43.450Z,72.30
2017-09-26T09:35:11.927Z,99.50
2017-09-26T09:37:40.387Z,81.10
2017-09-26T09:40:08.816Z,80.23
2017-09-26T09:42:37.266Z,79.40
2017-09-26T09:45:05.708Z,89.10
2017-09-26T09:47:34.932Z,81.23
2017-09-26T09:50:03.354Z,79.80
2017-09-26T09:52:31.914Z,80.63
2017-09-26T09:55:00.355Z,79.90
2017-09-26T09:57:29.692Z,80.43
2017-09-26T09:59:58.121Z,79.60
2017-09-26T10:02:26.560Z,82.23
2017-09-26T10:04:55.022Z,85.20
2017-09-26T10:07:23.511Z,82.40
2017-09-26T10:09:51.958Z,96.77
2017-09-26T10:12:20.385Z,83.93
2017-09-26T10:14:48.840Z,81.80
2017-09-26T10:17:18.055Z,65.83
2017-09-26T10:19:46.502Z,76.60
2017-09-26T10:22:15.735Z,69.63
2017-09-26T10:24:44.202Z,72.00
2017-09-26T10:27:13.400Z,81.97
2017-09-26T10:29:42.724Z,96.87
2017-09-26T10:32:11.168Z,68.97
2017-09-26T10:34:40.403Z,73.17
2017-09-26T10:37:08.888Z,79.40
2017-09-26T10:39:37.340Z,75.70
2017-09-26T10:42:06.561Z,77.87
2017-09-26T10:44:34.996Z,68.90
2017-09-26T10:47:03.522Z,75.07
2017-09-26T10:49:32.021Z,68.33
2017-09-26T10:52:00.480Z,85.60
2017-09-26T10:54:28.966Z,69.03
2017-09-26T10:56:57.410Z,65.00
2017-09-26T10:59:25.949Z,76.57
2017-09-26T11:01:54.399Z,77.33
2017-09-26T11:04:23.611Z,71.87
2017-09-26T11:06:52.085Z,76.30
2017-09-26T11:09:21.279Z,75.63
2017-09-26T11:11:50.477Z,73.70
2017-09-26T11:14:19.696Z,68.77
2017-09-26T11:16:48.137Z,77.83
2017-09-26T11:19:16.577Z,70.43
2017-09-26T11:21:45.012Z,80.77
2017-09-26T11:24:14.218Z,79.83
2017-09-26T11:26:43.407Z,68.50
2017-09-26T11:29:12.627Z,73.33
2017-09-26T11:31:41.119Z,75.73
2017-09-26T11:34:09.581Z,71.87
2017-09-26T11:36:38.776Z,69.63
2017-09-26T11:39:07.988Z,69.60
2017-09-26T11:41:36.444Z,74.70
2017-09-26T11:44:05.644Z,71.33
2017-09-26T11:46:34.869Z,68.77
2017-09-26T11:49:03.299Z,73.60
2017-09-26T11:51:31.749Z,70.23
2017-09-26T11:54:00.184Z,69.50
2017-09-26T11:56:28.631Z,54.90
2017-09-26T11:58:57.059Z,63.20
2017-09-26T12:01:26.297Z,85.47
2017-09-26T12:03:54.767Z,68.77
2017-09-26T12:06:23.256Z,68.43
2017-09-26T12:08:51.712Z,68.20
2017-09-26T12:11:20.909Z,61.80
2017-09-26T12:13:55.648Z,60.00
2017-09-26T12:16:24.136Z,66.83
2017-09-26T12:18:52.588Z,60.60
2017-09-26T12:21:21.782Z,57.63
2017-09-26T12:23:50.234Z,55.50
2017-09-26T12:26:18.779Z,62.53
2017-09-26T12:28:47.258Z,63.87
2017-09-26T12:31:15.687Z,54.53
2017-09-26T12:33:44.144Z,70.00
2017-09-26T12:36:12.611Z,57.30
2017-09-26T12:38:41.068Z,56.87
2017-09-26T12:41:10.263Z,62.83
2017-09-26T12:43:39.485Z,52.80
2017-09-26T12:46:07.916Z,54.43
2017-09-26T12:48:36.456Z,58.57
2017-09-26T12:51:04.939Z,57.17
2017-09-26T12:53:33.382Z,56.33
2017-09-26T12:56:02.620Z,55.93
2017-09-26T12:58:31.113Z,60.83
2017-09-26T13:00:59.579Z,56.20
2017-09-26T13:03:28.059Z,63.50
2017-09-26T13:05:56.520Z,52.63
2017-09-26T13:08:25.710Z,59.33
2017-09-26T13:10:54.944Z,63.73
2017-09-26T13:13:23.408Z,60.03
2017-09-26T13:15:52.728Z,75.63
2017-09-26T13:18:21.177Z,59.60
2017-09-26T13:20:50.404Z,72.00
2017-09-26T13:23:18.831Z,55.27
2017-09-26T13:25:47.270Z,65.40
2017-09-26T13:28:15.753Z,64.90
2017-09-26T13:30:44.203Z,56.77
2017-09-26T13:33:13.452Z,60.17
2017-09-26T13:35:42.011Z,71.20
2017-09-26T13:38:10.490Z,71.70
2017-09-26T13:40:38.924Z,67.93
2017-09-26T13:43:07.375Z,73.13
2017-09-26T13:45:35.807Z,72.73
2017-09-26T13:48:05.039Z,80.97
2017-09-26T13:50:33.472Z,78.37
2017-09-26T13:53:01.923Z,70.70
2017-09-26T13:55:30.361Z,85.47
2017-09-26T13:57:59.584Z,85.03
2017-09-26T14:00:28.019Z,71.90
2017-09-26T14:02:56.627Z,85.93
2017-09-26T14:05:25.820Z,78.87
2017-09-26T14:07:55.036Z,80.57
2017-09-26T14:10:23.523Z,80.23
2017-09-26T14:12:52.004Z,79.93
2017-09-26T14:15:20.426Z,83.23
2017-09-26T14:17:48.867Z,74.60
2017-09-26T14:20:17.325Z,75.33
2017-09-26T14:22:46.523Z,89.50
2017-09-26T14:25:15.741Z,78.93
2017-09-26T14:27:44.248Z,70.40
2017-09-26T14:30:12.696Z,86.27
2017-09-26T14:32:41.894Z,89.07
2017-09-26T14:35:11.114Z,81.33
2017-09-26T14:37:39.615Z,82.77
2017-09-26T14:40:08.064Z,72.67
2017-09-26T14:42:36.496Z,72.90
2017-09-26T14:45:04.952Z,79.93
2017-09-26T14:47:33.383Z,91.23
2017-09-26T14:50:02.603Z,91.47
2017-09-26T14:52:31.806Z,85.87
2017-09-26T14:55:00.254Z,73.13
2017-09-26T14:57:30.229Z,85.80
2017-09-26T14:59:58.796Z,77.40
2017-09-26T15:02:27.226Z,80.47
2017-09-26T15:04:55.763Z,73.70
2017-09-26T15:07:24.254Z,68.43
2017-09-26T15:09:52.724Z,80.03
2017-09-26T15:12:21.177Z,73.50
2017-09-26T15:14:50.372Z,75.27
2017-09-26T15:17:20.210Z,71.63
2017-09-26T15:19:48.652Z,64.10
2017-09-26T15:22:17.103Z,67.73
2017-09-26T15:24:45.531Z,74.50
2017-09-26T15:27:14.751Z,63.67
2017-09-26T15:29:43.244Z,75.40
2017-09-26T15:32:11.696Z,77.07
2017-09-26T15:34:40.924Z,63.23
2017-09-26T15:37:09.372Z,70.40
2017-09-26T15:39:38.598Z,72.80
2017-09-26T15:42:07.087Z,62.63
2017-09-26T15:44:35.576Z,65.03
2017-09-26T15:47:04.028Z,67.60
2017-09-26T15:49:33.256Z,72.43
2017-09-26T15:52:01.731Z,69.93
2017-09-26T15:54:30.164Z,69.70
2017-09-26T15:56:58.643Z,64.50
2017-09-26T15:59:27.073Z,66.63
2017-09-26T16:01:55.559Z,75.13
2017-09-26T16:04:24.050Z,65.40
2017-09-26T16:06:52.484Z,55.80
2017-09-26T16:09:21.713Z,60.70
2017-09-26T16:11:50.152Z,63.17
2017-09-26T16:14:18.606Z,58.90
2017-09-26T16:16:47.030Z,64.67
2017-09-26T16:19:16.252Z,75.57
2017-09-26T16:21:45.603Z,64.00
2017-09-26T16:24:14.061Z,60.43
2017-09-26T16:26:42.501Z,61.00
2017-09-26T16:29:11.736Z,64.67
2017-09-26T16:31:40.173Z,73.73
2017-09-26T16:34:09.423Z,64.30
2017-09-26T16:36:37.847Z,68.13
2017-09-26T16:39:06.372Z,61.50
2017-09-26T16:41:34.974Z,70.67
2017-09-26T16:44:03.402Z,67.37
2017-09-26T16:46:32.628Z,67.70
2017-09-26T16:49:01.086Z,62.73
2017-09-26T16:51:30.419Z,67.37
2017-09-26T16:53:58.847Z,60.30
2017-09-26T16:56:27.297Z,73.10
2017-09-26T16:58:55.732Z,83.07
2017-09-26T17:01:24.968Z,70.27
2017-09-26T17:03:53.395Z,65.03
2017-09-26T17:06:21.856Z,76.63
2017-09-26T17:08:50.297Z,78.20
2017-09-26T17:11:18.754Z,74.57
2017-09-26T17:13:47.956Z,67.10
2017-09-26T17:16:17.180Z,65.50
2017-09-26T17:18:45.671Z,67.30
2017-09-26T17:21:14.155Z,70.70
2017-09-26T17:23:42.630Z,60.50
2017-09-26T17:26:11.059Z,66.53
2017-09-26T17:28:39.518Z,64.00
2017-09-26T17:31:07.976Z,61.70
2017-09-26T17:33:36.431Z,66.57
2017-09-26T17:36:05.660Z,73.83
2017-09-26T17:38:34.144Z,71.03
2017-09-26T17:41:02.572Z,67.47
2017-09-26T17:43:31.028Z,68.53
2017-09-26T17:45:59.463Z,69.10
2017-09-26T17:48:28.784Z,69.17
2017-09-26T17:50:57.224Z,72.37
2017-09-26T17:53:25.740Z,83.80
2017-09-26T17:55:54.169Z,73.17
2017-09-26T17:58:22.715Z,73.70
2017-09-26T18:00:51.209Z,62.73
2017-09-26T18:03:19.664Z,67.00
2017-09-26T18:05:48.099Z,68.00
2017-09-26T18:08:16.559Z,74.30
2017-09-26T18:10:45.015Z,70.90
2017-09-26T18:13:13.484Z,71.43
2017-09-26T18:15:42.674Z,74.53
2017-09-26T18:18:11.872Z,74.87
2017-09-26T18:20:41.087Z,66.70
2017-09-26T18:23:09.521Z,90.97
2017-09-26T18:25:38.060Z,62.67
2017-09-26T18:28:06.548Z,64.33
2017-09-26T18:30:35.024Z,71.30
2017-09-26T18:33:03.454Z,60.57
2017-09-26T18:35:31.907Z,65.47
2017-09-26T18:38:00.341Z,84.03
2017-09-26T18:40:29.680Z,81.73
2017-09-26T18:42:58.116Z,69.13
2017-09-26T18:45:26.576Z,68.07
2017-09-26T18:47:55.116Z,69.33
2017-09-26T18:50:23.700Z,65.37
2017-09-26T18:52:52.131Z,66.07
2017-09-26T18:55:20.559Z,80.07
2017-09-26T18:57:49.043Z,60.40
2017-09-26T19:00:17.475Z,60.27
2017-09-26T19:02:45.936Z,71.37
2017-09-26T19:05:14.385Z,70.73
2017-09-26T19:07:42.876Z,67.63
2017-09-26T19:10:11.314Z,86.50
2017-09-26T19:12:40.551Z,69.93
2017-09-26T19:15:08.980Z,83.67
2017-09-26T19:17:37.431Z,73.63
2017-09-26T19:20:06.320Z,82.50
2017-09-26T19:22:35.799Z,82.70
2017-09-26T19:25:04.227Z,85.40
2017-09-26T19:27:32.681Z,81.87
2017-09-26T19:30:01.120Z,77.83
2017-09-26T19:32:30.455Z,82.40
2017-09-26T19:34:58.934Z,74.87
2017-09-26T19:37:27.364Z,76.90
2017-09-26T19:39:55.814Z,97.90
2017-09-26T19:42:24.251Z,78.73
2017-09-26T19:44:54.195Z,93.00
2017-09-26T19:47:22.631Z,74.53
2017-09-26T19:49:51.846Z,83.43
2017-09-26T19:52:21.047Z,83.43
2017-09-26T19:54:50.268Z,95.90
2017-09-26T19:57:18.705Z,85.80
2017-09-26T19:59:47.147Z,84.60
2017-09-26T20:02:15.575Z,83.43
2017-09-26T20:04:44.041Z,72.13
2017-09-26T20:07:12.476Z,67.77
2017-09-26T20:09:40.928Z,105.60
2017-09-26T20:12:10.159Z,86.00
2017-09-26T20:14:38.647Z,85.97
2017-09-26T20:17:07.123Z,79.47
2017-09-26T20:19:35.609Z,81.20
2017-09-26T20:22:04.487Z,90.40
2017-09-26T20:24:32.979Z,75.90
2017-09-26T20:27:01.432Z,87.80
2017-09-26T20:29:30.637Z,92.30
2017-09-26T20:31:59.960Z,78.53
2017-09-26T20:34:28.442Z,92.07
2017-09-26T20:36:56.895Z,75.17
2017-09-26T20:39:26.097Z,79.30
2017-09-26T20:41:55.315Z,73.87
2017-09-26T20:44:23.748Z,83.00
2017-09-26T20:46:52.293Z,84.73
2017-09-26T20:49:20.735Z,81.10
2017-09-26T20:51:49.946Z,88.13
2017-09-26T20:54:19.138Z,88.90
2017-09-26T20:56:48.361Z,95.20
2017-09-26T20:59:16.852Z,95.23
2017-09-26T21:01:45.318Z,92.63
2017-09-26T21:04:13.828Z,87.53
2017-09-26T21:06:42.255Z,90.80
2017-09-26T21:09:10.807Z,97.30
2017-09-26T21:11:39.234Z,100.27
2017-09-26T21:14:08.452Z,93.63
2017-09-26T21:16:36.929Z,89.17
2017-09-26T21:19:05.372Z,90.70
2017-09-26T21:21:33.899Z,97.80
2017-09-26T21:24:02.388Z,96.93
2017-09-26T21:26:30.815Z,112.20
2017-09-26T21:28:59.269Z,99.80
2017-09-26T21:31:27.708Z,104.47
2017-09-26T21:33:56.196Z,107.30
2017-09-26T21:36:24.696Z,114.10
2017-09-26T21:38:53.130Z,91.13
2017-09-26T21:41:21.662Z,103.90
2017-09-26T21:43:50.104Z,111.77
2017-09-26T21:46:19.431Z,98.87
2017-09-26T21:48:47.928Z,101.83
2017-09-26T21:51:16.407Z,93.13
2017-09-26T21:53:44.842Z,110.60
2017-09-26T21:56:13.307Z,103.53
2017-09-26T21:58:41.748Z,103.17
2017-09-26T22:01:10.200Z,107.50
2017-09-26T22:03:39.428Z,98.50
2017-09-26T22:06:07.899Z,101.47
2017-09-26T22:08:36.330Z,114.67
2017-09-26T22:11:04.871Z,104.90
2017-09-26T22:13:33.324Z,109.77
2017-09-26T22:16:02.519Z,115.77
2017-09-26T22:18:31.742Z,116.60
2017-09-26T22:21:00.167Z,110.93
2017-09-26T22:23:28.720Z,109.07
2017-09-26T22:25:57.156Z,105.27
2017-09-26T22:28:27.120Z,112.90
2017-09-26T22:30:55.610Z,106.30
2017-09-26T22:33:24.072Z,110.63
2017-09-26T22:35:52.507Z,135.50
2017-09-26T22:38:20.964Z,124.47
2017-09-26T22:40:49.428Z,111.57
2017-09-26T22:43:17.899Z,112.07
2017-09-26T22:45:46.336Z,126.43
2017-09-26T22:48:14.767Z,131.17
2017-09-26T22:50:43.224Z,109.10
2017-09-26T22:53:12.448Z,123.77
2017-09-26T22:55:40.931Z,112.73
2017-09-26T22:58:09.370Z,114.87
2017-09-26T23:00:37.822Z,121.80
2017-09-26T23:03:06.285Z,122.97
2017-09-26T23:05:34.740Z,117.63
2017-09-26T23:08:03.934Z,125.87
2017-09-26T23:10:33.176Z,135.80
2017-09-26T23:13:01.603Z,132.67
2017-09-26T23:15:30.808Z,133.30
2017-09-26T23:18:00.032Z,125.50
2017-09-26T23:20:28.459Z,151.23
2017-09-26T23:22:56.916Z,148.10
2017-09-26T23:25:25.386Z,121.90
2017-09-26T23:27:53.838Z,122.93
2017-09-26T23:30:23.026Z,143.90
2017-09-26T23:32:54.710Z,126.93
2017-09-26T23:35:23.200Z,144.30
2017-09-26T23:37:51.676Z,144.80
2017-09-26T23:40:20.117Z,142.57
2017-09-26T23:42:48.555Z,147.40
2017-09-26T23:45:17.014Z,142.50
2017-09-26T23:47:45.452Z,141.07
2017-09-26T23:50:13.907Z,132.67
2017-09-26T23:52:42.362Z,155.93
2017-09-26T23:55:10.840Z,121.40
2017-09-26T23:57:39.267Z,145.10
